sensor_id;sensor_type;location;lat;lon;timestamp;temperature;humidity
16881;DHT22;8557;52.068;5.198;2022-11-20T00:01:21;-1.40;99.90
16881;DHT22;8557;52.068;5.198;2022-11-20T00:03:51;-1.50;99.90
16881;DHT22;8557;52.068;5.198;2022-11-20T00:06:19;-1.50;99.90
16881;DHT22;8557;52.068;5.198;2022-11-20T00:08:47;-1.70;99.90
16881;DHT22;8557;52.068;5.198;2022-11-20T00:11:15;-1.70;99.90
16881;DHT22;8557;52.068;5.198;2022-11-20T00:13:42;-1.70;99.90
16881;DHT22;8557;52.068;5.198;2022-11-20T00:16:11;-1.60;99.90
16881;DHT22;8557;52.068;5.198;2022-11-20T00:18:37;-1.60;99.90
16881;DHT22;8557;52.068;5.198;2022-11-20T00:21:07;-1.60;99.90
16881;DHT22;8557;52.068;5.198;2022-11-20T00:23:36;-1.70;99.90
16881;DHT22;8557;52.068;5.198;2022-11-20T00:26:03;-1.60;99.90
16881;DHT22;8557;52.068;5.198;2022-11-20T00:28:30;-1.70;99.90
16881;DHT22;8557;52.068;5.198;2022-11-20T00:31:01;-1.70;99.90
16881;DHT22;8557;52.068;5.198;2022-11-20T00:33:29;-1.70;99.90
16881;DHT22;8557;52.068;5.198;2022-11-20T00:35:59;-1.70;99.90
16881;DHT22;8557;52.068;5.198;2022-11-20T00:38:28;-1.70;99.90
16881;DHT22;8557;52.068;5.198;2022-11-20T00:40:56;-1.70;99.90
16881;DHT22;8557;52.068;5.198;2022-11-20T00:43:24;-1.70;99.90
16881;DHT22;8557;52.068;5.198;2022-11-20T00:45:55;-1.70;99.90
16881;DHT22;8557;52.068;5.198;2022-11-20T00:48:22;-1.70;99.90
16881;DHT22;8557;52.068;5.198;2022-11-20T00:50:49;-1.70;99.90
16881;DHT22;8557;52.068;5.198;2022-11-20T00:53:15;-1.70;99.90
16881;DHT22;8557;52.068;5.198;2022-11-20T00:55:52;-1.70;99.90
16881;DHT22;8557;52.068;5.198;2022-11-20T00:58:20;-1.70;99.90
16881;DHT22;8557;52.068;5.198;2022-11-20T01:00:46;-1.70;99.90
16881;DHT22;8557;52.068;5.198;2022-11-20T01:03:13;-1.80;99.90
16881;DHT22;8557;52.068;5.198;2022-11-20T01:05:40;-1.80;99.90
16881;DHT22;8557;52.068;5.198;2022-11-20T01:08:07;-1.70;99.90
16881;DHT22;8557;52.068;5.198;2022-11-20T01:10:34;-1.70;99.90
16881;DHT22;8557;52.068;5.198;2022-11-20T01:13:02;-1.70;99.90
16881;DHT22;8557;52.068;5.198;2022-11-20T01:15:46;-1.80;99.90
16881;DHT22;8557;52.068;5.198;2022-11-20T01:18:13;-1.70;99.90
16881;DHT22;8557;52.068;5.198;2022-11-20T01:20:39;-1.80;99.90
16881;DHT22;8557;52.068;5.198;2022-11-20T01:23:06;-1.90;99.90
16881;DHT22;8557;52.068;5.198;2022-11-20T01:25:34;-1.90;99.90
16881;DHT22;8557;52.068;5.198;2022-11-20T01:28:02;-1.90;99.90
16881;DHT22;8557;52.068;5.198;2022-11-20T01:30:29;-1.90;99.90
16881;DHT22;8557;52.068;5.198;2022-11-20T01:32:56;-1.90;99.90
16881;DHT22;8557;52.068;5.198;2022-11-20T01:35:22;-2.00;99.90
16881;DHT22;8557;52.068;5.198;2022-11-20T01:37:50;-2.00;99.90
16881;DHT22;8557;52.068;5.198;2022-11-20T01:40:16;-2.00;99.90
16881;DHT22;8557;52.068;5.198;2022-11-20T01:42:46;-2.00;99.90
16881;DHT22;8557;52.068;5.198;2022-11-20T01:45:59;-2.00;99.90
16881;DHT22;8557;52.068;5.198;2022-11-20T01:48:30;-2.00;99.90
16881;DHT22;8557;52.068;5.198;2022-11-20T01:50:58;-2.00;99.90
16881;DHT22;8557;52.068;5.198;2022-11-20T01:53:30;-1.90;99.90
16881;DHT22;8557;52.068;5.198;2022-11-20T01:56:00;-2.00;99.90
16881;DHT22;8557;52.068;5.198;2022-11-20T01:58:31;-2.00;99.90
16881;DHT22;8557;52.068;5.198;2022-11-20T02:01:00;-2.00;99.90
16881;DHT22;8557;52.068;5.198;2022-11-20T02:03:27;-2.00;99.90
16881;DHT22;8557;52.068;5.198;2022-11-20T02:05:57;-2.10;99.90
16881;DHT22;8557;52.068;5.198;2022-11-20T02:08:28;-2.10;99.90
16881;DHT22;8557;52.068;5.198;2022-11-20T02:10:55;-2.20;99.90
16881;DHT22;8557;52.068;5.198;2022-11-20T02:13:22;-2.20;99.90
16881;DHT22;8557;52.068;5.198;2022-11-20T02:16:11;-2.20;99.90
16881;DHT22;8557;52.068;5.198;2022-11-20T02:18:39;-2.10;99.90
16881;DHT22;8557;52.068;5.198;2022-11-20T02:21:09;-2.20;99.90
16881;DHT22;8557;52.068;5.198;2022-11-20T02:26:13;-2.20;99.90
16881;DHT22;8557;52.068;5.198;2022-11-20T02:28:40;-2.20;99.90
16881;DHT22;8557;52.068;5.198;2022-11-20T02:31:07;-2.20;99.90
16881;DHT22;8557;52.068;5.198;2022-11-20T02:33:34;-2.20;99.90
16881;DHT22;8557;52.068;5.198;2022-11-20T02:36:01;-2.30;99.90
16881;DHT22;8557;52.068;5.198;2022-11-20T02:38:28;-2.20;99.90
16881;DHT22;8557;52.068;5.198;2022-11-20T02:40:54;-2.20;99.90
16881;DHT22;8557;52.068;5.198;2022-11-20T02:43:23;-2.30;99.90
16881;DHT22;8557;52.068;5.198;2022-11-20T02:45:49;-2.30;99.90
16881;DHT22;8557;52.068;5.198;2022-11-20T02:48:16;-2.50;99.90
16881;DHT22;8557;52.068;5.198;2022-11-20T02:50:43;-2.50;99.90
16881;DHT22;8557;52.068;5.198;2022-11-20T02:53:10;-2.40;99.90
16881;DHT22;8557;52.068;5.198;2022-11-20T02:55:36;-2.70;99.90
16881;DHT22;8557;52.068;5.198;2022-11-20T02:58:03;-2.70;99.90
16881;DHT22;8557;52.068;5.198;2022-11-20T03:00:31;-2.60;99.90
16881;DHT22;8557;52.068;5.198;2022-11-20T03:02:58;-2.60;99.90
16881;DHT22;8557;52.068;5.198;2022-11-20T03:05:25;-2.60;99.90
16881;DHT22;8557;52.068;5.198;2022-11-20T03:07:52;-2.50;99.90
16881;DHT22;8557;52.068;5.198;2022-11-20T03:10:19;-2.40;99.90
16881;DHT22;8557;52.068;5.198;2022-11-20T03:12:45;-2.40;99.90
16881;DHT22;8557;52.068;5.198;2022-11-20T03:15:12;-2.60;99.90
16881;DHT22;8557;52.068;5.198;2022-11-20T03:17:40;-2.80;99.90
16881;DHT22;8557;52.068;5.198;2022-11-20T03:20:08;-3.00;99.90
16881;DHT22;8557;52.068;5.198;2022-11-20T03:22:35;-2.80;99.90
16881;DHT22;8557;52.068;5.198;2022-11-20T03:25:02;-2.90;99.90
16881;DHT22;8557;52.068;5.198;2022-11-20T03:27:32;-2.90;99.90
16881;DHT22;8557;52.068;5.198;2022-11-20T03:29:59;-3.00;99.90
16881;DHT22;8557;52.068;5.198;2022-11-20T03:32:25;-3.00;99.90
16881;DHT22;8557;52.068;5.198;2022-11-20T03:34:53;-3.00;99.90
16881;DHT22;8557;52.068;5.198;2022-11-20T03:37:20;-2.90;99.90
16881;DHT22;8557;52.068;5.198;2022-11-20T03:39:47;-3.00;99.90
16881;DHT22;8557;52.068;5.198;2022-11-20T03:42:14;-2.80;99.90
16881;DHT22;8557;52.068;5.198;2022-11-20T03:44:55;-2.80;99.90
16881;DHT22;8557;52.068;5.198;2022-11-20T03:47:21;-2.80;99.90
16881;DHT22;8557;52.068;5.198;2022-11-20T03:49:48;-2.80;99.90
16881;DHT22;8557;52.068;5.198;2022-11-20T03:52:16;-2.70;99.90
16881;DHT22;8557;52.068;5.198;2022-11-20T03:54:43;-2.80;99.90
16881;DHT22;8557;52.068;5.198;2022-11-20T03:57:10;-2.80;99.90
16881;DHT22;8557;52.068;5.198;2022-11-20T03:59:37;-2.80;99.90
16881;DHT22;8557;52.068;5.198;2022-11-20T04:02:03;-2.80;99.90
16881;DHT22;8557;52.068;5.198;2022-11-20T04:04:30;-2.70;99.90
16881;DHT22;8557;52.068;5.198;2022-11-20T04:06:57;-2.60;99.90
16881;DHT22;8557;52.068;5.198;2022-11-20T04:09:25;-2.60;99.90
16881;DHT22;8557;52.068;5.198;2022-11-20T04:11:52;-3.00;99.90
16881;DHT22;8557;52.068;5.198;2022-11-20T04:14:19;-2.90;99.90
16881;DHT22;8557;52.068;5.198;2022-11-20T04:16:46;-2.80;99.90
16881;DHT22;8557;52.068;5.198;2022-11-20T04:19:15;-2.80;99.90
16881;DHT22;8557;52.068;5.198;2022-11-20T04:21:42;-2.80;99.90
16881;DHT22;8557;52.068;5.198;2022-11-20T04:24:09;-2.70;99.90
16881;DHT22;8557;52.068;5.198;2022-11-20T04:26:38;-2.60;99.90
16881;DHT22;8557;52.068;5.198;2022-11-20T04:29:05;-2.60;99.90
16881;DHT22;8557;52.068;5.198;2022-11-20T04:31:33;-2.70;99.90
16881;DHT22;8557;52.068;5.198;2022-11-20T04:34:01;-2.60;99.90
16881;DHT22;8557;52.068;5.198;2022-11-20T04:36:29;-2.60;99.90
16881;DHT22;8557;52.068;5.198;2022-11-20T04:38:57;-2.50;99.90
16881;DHT22;8557;52.068;5.198;2022-11-20T04:41:25;-2.60;99.90
16881;DHT22;8557;52.068;5.198;2022-11-20T04:43:55;-2.60;99.90
16881;DHT22;8557;52.068;5.198;2022-11-20T04:46:25;-2.60;99.90
16881;DHT22;8557;52.068;5.198;2022-11-20T04:48:52;-2.60;99.90
16881;DHT22;8557;52.068;5.198;2022-11-20T04:51:19;-2.60;99.90
16881;DHT22;8557;52.068;5.198;2022-11-20T04:53:46;-2.60;99.90
16881;DHT22;8557;52.068;5.198;2022-11-20T04:56:13;-2.60;99.90
16881;DHT22;8557;52.068;5.198;2022-11-20T04:58:40;-2.50;99.90
16881;DHT22;8557;52.068;5.198;2022-11-20T05:01:10;-2.50;99.90
16881;DHT22;8557;52.068;5.198;2022-11-20T05:03:37;-2.50;99.90
16881;DHT22;8557;52.068;5.198;2022-11-20T05:06:05;-2.60;99.90
16881;DHT22;8557;52.068;5.198;2022-11-20T05:08:33;-2.60;99.90
16881;DHT22;8557;52.068;5.198;2022-11-20T05:11:00;-2.60;99.90
16881;DHT22;8557;52.068;5.198;2022-11-20T05:13:28;-2.60;99.90
16881;DHT22;8557;52.068;5.198;2022-11-20T05:15:54;-2.70;99.90
16881;DHT22;8557;52.068;5.198;2022-11-20T05:18:22;-2.60;99.90
16881;DHT22;8557;52.068;5.198;2022-11-20T05:20:55;-2.70;99.90
16881;DHT22;8557;52.068;5.198;2022-11-20T05:23:22;-2.70;99.90
16881;DHT22;8557;52.068;5.198;2022-11-20T05:25:52;-2.60;99.90
16881;DHT22;8557;52.068;5.198;2022-11-20T05:28:19;-2.70;99.90
16881;DHT22;8557;52.068;5.198;2022-11-20T05:30:46;-2.80;99.90
16881;DHT22;8557;52.068;5.198;2022-11-20T05:33:13;-2.70;99.90
16881;DHT22;8557;52.068;5.198;2022-11-20T05:35:41;-2.70;99.90
16881;DHT22;8557;52.068;5.198;2022-11-20T05:38:08;-2.70;99.90
16881;DHT22;8557;52.068;5.198;2022-11-20T05:40:34;-2.70;99.90
16881;DHT22;8557;52.068;5.198;2022-11-20T05:43:01;-2.80;99.90
16881;DHT22;8557;52.068;5.198;2022-11-20T05:45:28;-2.80;99.90
16881;DHT22;8557;52.068;5.198;2022-11-20T05:47:58;-2.80;99.90
16881;DHT22;8557;52.068;5.198;2022-11-20T05:50:26;-2.80;99.90
16881;DHT22;8557;52.068;5.198;2022-11-20T05:52:54;-2.90;99.90
16881;DHT22;8557;52.068;5.198;2022-11-20T05:55:20;-3.20;99.90
16881;DHT22;8557;52.068;5.198;2022-11-20T05:57:47;-3.20;99.90
16881;DHT22;8557;52.068;5.198;2022-11-20T06:00:15;-3.10;99.90
16881;DHT22;8557;52.068;5.198;2022-11-20T06:02:42;-3.00;99.90
16881;DHT22;8557;52.068;5.198;2022-11-20T06:05:08;-3.00;99.90
16881;DHT22;8557;52.068;5.198;2022-11-20T06:07:35;-3.00;99.90
16881;DHT22;8557;52.068;5.198;2022-11-20T06:10:04;-2.90;99.90
16881;DHT22;8557;52.068;5.198;2022-11-20T06:12:31;-3.00;99.90
16881;DHT22;8557;52.068;5.198;2022-11-20T06:14:59;-2.90;99.90
16881;DHT22;8557;52.068;5.198;2022-11-20T06:17:26;-2.80;99.90
16881;DHT22;8557;52.068;5.198;2022-11-20T06:19:53;-2.70;99.90
16881;DHT22;8557;52.068;5.198;2022-11-20T06:22:19;-2.70;99.90
16881;DHT22;8557;52.068;5.198;2022-11-20T06:24:47;-2.70;99.90
16881;DHT22;8557;52.068;5.198;2022-11-20T06:27:15;-2.70;99.90
16881;DHT22;8557;52.068;5.198;2022-11-20T06:29:42;-2.70;99.90
16881;DHT22;8557;52.068;5.198;2022-11-20T06:32:09;-2.60;99.90
16881;DHT22;8557;52.068;5.198;2022-11-20T06:34:36;-2.60;99.90
16881;DHT22;8557;52.068;5.198;2022-11-20T06:37:03;-2.50;99.90
16881;DHT22;8557;52.068;5.198;2022-11-20T06:39:30;-2.50;99.90
16881;DHT22;8557;52.068;5.198;2022-11-20T06:41:56;-2.60;99.90
16881;DHT22;8557;52.068;5.198;2022-11-20T06:44:25;-2.60;99.90
16881;DHT22;8557;52.068;5.198;2022-11-20T06:46:51;-2.60;99.90
16881;DHT22;8557;52.068;5.198;2022-11-20T06:49:18;-2.70;99.90
16881;DHT22;8557;52.068;5.198;2022-11-20T06:51:45;-2.70;99.90
16881;DHT22;8557;52.068;5.198;2022-11-20T06:54:12;-2.70;99.90
16881;DHT22;8557;52.068;5.198;2022-11-20T06:56:38;-2.70;99.90
16881;DHT22;8557;52.068;5.198;2022-11-20T06:59:05;-2.70;99.90
16881;DHT22;8557;52.068;5.198;2022-11-20T07:01:33;-2.70;99.90
16881;DHT22;8557;52.068;5.198;2022-11-20T07:04:01;-2.60;99.90
16881;DHT22;8557;52.068;5.198;2022-11-20T07:06:28;-2.60;99.90
16881;DHT22;8557;52.068;5.198;2022-11-20T07:08:55;-2.60;99.90
16881;DHT22;8557;52.068;5.198;2022-11-20T07:11:22;-2.60;99.90
16881;DHT22;8557;52.068;5.198;2022-11-20T07:13:49;-2.60;99.90
16881;DHT22;8557;52.068;5.198;2022-11-20T07:16:16;-2.60;99.90
16881;DHT22;8557;52.068;5.198;2022-11-20T07:18:44;-2.50;99.90
16881;DHT22;8557;52.068;5.198;2022-11-20T07:21:10;-2.50;99.90
16881;DHT22;8557;52.068;5.198;2022-11-20T07:23:37;-2.50;99.90
16881;DHT22;8557;52.068;5.198;2022-11-20T07:26:05;-2.50;99.90
16881;DHT22;8557;52.068;5.198;2022-11-20T07:28:32;-2.50;99.90
16881;DHT22;8557;52.068;5.198;2022-11-20T07:30:59;-2.40;99.90
16881;DHT22;8557;52.068;5.198;2022-11-20T07:33:26;-2.40;99.90
16881;DHT22;8557;52.068;5.198;2022-11-20T07:35:54;-2.30;99.90
16881;DHT22;8557;52.068;5.198;2022-11-20T07:38:21;-2.20;99.90
16881;DHT22;8557;52.068;5.198;2022-11-20T07:40:47;-2.20;99.90
16881;DHT22;8557;52.068;5.198;2022-11-20T07:43:14;-2.10;99.90
16881;DHT22;8557;52.068;5.198;2022-11-20T07:45:41;-2.00;99.90
16881;DHT22;8557;52.068;5.198;2022-11-20T07:48:08;-1.90;99.90
16881;DHT22;8557;52.068;5.198;2022-11-20T07:50:34;-1.80;99.90
16881;DHT22;8557;52.068;5.198;2022-11-20T07:53:04;-1.60;99.90
16881;DHT22;8557;52.068;5.198;2022-11-20T07:55:31;-1.60;99.90
16881;DHT22;8557;52.068;5.198;2022-11-20T07:57:58;-1.40;99.90
16881;DHT22;8557;52.068;5.198;2022-11-20T08:00:26;-1.30;99.90
16881;DHT22;8557;52.068;5.198;2022-11-20T08:02:52;-1.20;99.90
16881;DHT22;8557;52.068;5.198;2022-11-20T08:05:19;-1.20;99.90
16881;DHT22;8557;52.068;5.198;2022-11-20T08:07:46;-1.00;99.90
16881;DHT22;8557;52.068;5.198;2022-11-20T08:10:15;-0.90;99.90
16881;DHT22;8557;52.068;5.198;2022-11-20T08:12:46;-0.90;99.90
16881;DHT22;8557;52.068;5.198;2022-11-20T08:15:30;-0.90;99.90
16881;DHT22;8557;52.068;5.198;2022-11-20T08:18:02;-0.70;99.90
16881;DHT22;8557;52.068;5.198;2022-11-20T08:20:29;-0.60;99.90
16881;DHT22;8557;52.068;5.198;2022-11-20T08:23:00;-0.50;99.90
16881;DHT22;8557;52.068;5.198;2022-11-20T08:25:29;-0.40;99.90
16881;DHT22;8557;52.068;5.198;2022-11-20T08:27:57;-0.40;99.90
16881;DHT22;8557;52.068;5.198;2022-11-20T08:30:25;-0.30;99.90
16881;DHT22;8557;52.068;5.198;2022-11-20T08:32:52;-0.30;99.90
16881;DHT22;8557;52.068;5.198;2022-11-20T08:35:19;-0.20;99.90
16881;DHT22;8557;52.068;5.198;2022-11-20T08:37:47;0.00;99.90
16881;DHT22;8557;52.068;5.198;2022-11-20T08:40:14;-0.10;99.90
16881;DHT22;8557;52.068;5.198;2022-11-20T08:42:47;0.00;99.90
16881;DHT22;8557;52.068;5.198;2022-11-20T08:45:14;0.00;99.90
16881;DHT22;8557;52.068;5.198;2022-11-20T08:47:41;0.00;99.90
16881;DHT22;8557;52.068;5.198;2022-11-20T08:50:09;0.00;99.90
16881;DHT22;8557;52.068;5.198;2022-11-20T08:52:36;0.00;99.90
16881;DHT22;8557;52.068;5.198;2022-11-20T08:55:03;0.00;99.90
16881;DHT22;8557;52.068;5.198;2022-11-20T08:57:31;0.00;99.90
16881;DHT22;8557;52.068;5.198;2022-11-20T09:00:00;0.00;99.90
16881;DHT22;8557;52.068;5.198;2022-11-20T09:02:27;0.10;99.90
16881;DHT22;8557;52.068;5.198;2022-11-20T09:04:54;0.30;99.90
16881;DHT22;8557;52.068;5.198;2022-11-20T09:07:20;0.30;99.90
16881;DHT22;8557;52.068;5.198;2022-11-20T09:09:47;0.40;99.90
16881;DHT22;8557;52.068;5.198;2022-11-20T09:12:14;0.50;99.90
16881;DHT22;8557;52.068;5.198;2022-11-20T09:14:41;0.60;99.90
16881;DHT22;8557;52.068;5.198;2022-11-20T09:17:09;0.60;99.90
16881;DHT22;8557;52.068;5.198;2022-11-20T09:19:39;0.60;99.90
16881;DHT22;8557;52.068;5.198;2022-11-20T09:22:06;0.70;99.90
16881;DHT22;8557;52.068;5.198;2022-11-20T09:24:33;0.80;99.90
16881;DHT22;8557;52.068;5.198;2022-11-20T09:27:02;0.80;99.90
16881;DHT22;8557;52.068;5.198;2022-11-20T09:29:29;0.80;99.90
16881;DHT22;8557;52.068;5.198;2022-11-20T09:31:56;0.70;99.90
16881;DHT22;8557;52.068;5.198;2022-11-20T09:34:24;0.90;99.90
16881;DHT22;8557;52.068;5.198;2022-11-20T09:36:51;1.10;99.90
16881;DHT22;8557;52.068;5.198;2022-11-20T09:39:18;1.20;99.90
16881;DHT22;8557;52.068;5.198;2022-11-20T09:42:01;1.30;99.90
16881;DHT22;8557;52.068;5.198;2022-11-20T09:44:40;1.50;99.90
16881;DHT22;8557;52.068;5.198;2022-11-20T09:47:16;1.60;99.90
16881;DHT22;8557;52.068;5.198;2022-11-20T09:50:02;1.70;99.90
16881;DHT22;8557;52.068;5.198;2022-11-20T09:52:39;1.80;99.90
16881;DHT22;8557;52.068;5.198;2022-11-20T09:55:12;1.70;99.90
16881;DHT22;8557;52.068;5.198;2022-11-20T09:57:42;1.80;99.90
16881;DHT22;8557;52.068;5.198;2022-11-20T10:00:11;1.90;99.90
16881;DHT22;8557;52.068;5.198;2022-11-20T10:02:42;2.00;99.90
16881;DHT22;8557;52.068;5.198;2022-11-20T10:05:18;2.00;99.90
16881;DHT22;8557;52.068;5.198;2022-11-20T10:07:48;2.00;99.90
16881;DHT22;8557;52.068;5.198;2022-11-20T10:10:26;2.00;99.90
16881;DHT22;8557;52.068;5.198;2022-11-20T10:13:04;2.20;99.90
16881;DHT22;8557;52.068;5.198;2022-11-20T10:15:38;2.20;99.90
16881;DHT22;8557;52.068;5.198;2022-11-20T10:18:22;2.20;99.90
16881;DHT22;8557;52.068;5.198;2022-11-20T10:21:01;2.30;99.90
16881;DHT22;8557;52.068;5.198;2022-11-20T10:23:51;2.30;99.90
16881;DHT22;8557;52.068;5.198;2022-11-20T10:26:25;2.30;99.90
16881;DHT22;8557;52.068;5.198;2022-11-20T10:29:10;2.50;99.90
16881;DHT22;8557;52.068;5.198;2022-11-20T10:31:39;2.50;99.90
16881;DHT22;8557;52.068;5.198;2022-11-20T10:34:17;2.60;99.90
16881;DHT22;8557;52.068;5.198;2022-11-20T10:36:50;2.60;99.90
16881;DHT22;8557;52.068;5.198;2022-11-20T10:39:24;2.60;99.90
16881;DHT22;8557;52.068;5.198;2022-11-20T10:42:37;2.70;99.90
16881;DHT22;8557;52.068;5.198;2022-11-20T10:45:15;2.80;99.90
16881;DHT22;8557;52.068;5.198;2022-11-20T10:48:17;2.80;99.90
16881;DHT22;8557;52.068;5.198;2022-11-20T10:51:02;2.80;99.90
16881;DHT22;8557;52.068;5.198;2022-11-20T10:53:53;2.90;99.90
16881;DHT22;8557;52.068;5.198;2022-11-20T10:56:28;3.00;99.90
16881;DHT22;8557;52.068;5.198;2022-11-20T10:59:52;3.10;99.90
16881;DHT22;8557;52.068;5.198;2022-11-20T11:02:23;3.20;99.90
16881;DHT22;8557;52.068;5.198;2022-11-20T11:05:09;3.20;99.90
16881;DHT22;8557;52.068;5.198;2022-11-20T11:07:38;3.30;99.90
16881;DHT22;8557;52.068;5.198;2022-11-20T11:10:15;3.30;99.90
16881;DHT22;8557;52.068;5.198;2022-11-20T11:12:44;3.30;99.90
16881;DHT22;8557;52.068;5.198;2022-11-20T11:15:14;3.40;99.90
16881;DHT22;8557;52.068;5.198;2022-11-20T11:17:46;3.50;99.90
16881;DHT22;8557;52.068;5.198;2022-11-20T11:20:18;3.50;99.90
16881;DHT22;8557;52.068;5.198;2022-11-20T11:22:47;3.50;99.90
16881;DHT22;8557;52.068;5.198;2022-11-20T11:25:28;3.40;99.90
16881;DHT22;8557;52.068;5.198;2022-11-20T11:27:57;3.40;99.90
16881;DHT22;8557;52.068;5.198;2022-11-20T11:30:26;3.40;99.90
16881;DHT22;8557;52.068;5.198;2022-11-20T11:33:03;3.40;99.90
16881;DHT22;8557;52.068;5.198;2022-11-20T11:35:31;3.50;99.90
16881;DHT22;8557;52.068;5.198;2022-11-20T11:38:03;3.50;99.90
16881;DHT22;8557;52.068;5.198;2022-11-20T11:40:34;3.50;99.90
16881;DHT22;8557;52.068;5.198;2022-11-20T11:43:05;3.50;99.90
16881;DHT22;8557;52.068;5.198;2022-11-20T11:45:54;3.50;99.90
16881;DHT22;8557;52.068;5.198;2022-11-20T11:48:20;3.50;99.90
16881;DHT22;8557;52.068;5.198;2022-11-20T11:50:48;3.50;99.90
16881;DHT22;8557;52.068;5.198;2022-11-20T11:53:17;3.60;99.90
16881;DHT22;8557;52.068;5.198;2022-11-20T11:55:49;3.60;99.90
16881;DHT22;8557;52.068;5.198;2022-11-20T11:58:33;3.70;99.90
16881;DHT22;8557;52.068;5.198;2022-11-20T12:01:04;3.80;99.90
16881;DHT22;8557;52.068;5.198;2022-11-20T12:03:36;3.70;99.90
16881;DHT22;8557;52.068;5.198;2022-11-20T12:06:08;3.70;99.90
16881;DHT22;8557;52.068;5.198;2022-11-20T12:08:43;3.70;99.90
16881;DHT22;8557;52.068;5.198;2022-11-20T12:11:16;3.60;99.90
16881;DHT22;8557;52.068;5.198;2022-11-20T12:13:50;3.70;99.90
16881;DHT22;8557;52.068;5.198;2022-11-20T12:16:20;3.70;99.90
16881;DHT22;8557;52.068;5.198;2022-11-20T12:18:50;3.80;99.90
16881;DHT22;8557;52.068;5.198;2022-11-20T12:21:27;3.70;99.90
16881;DHT22;8557;52.068;5.198;2022-11-20T12:24:06;3.70;99.90
16881;DHT22;8557;52.068;5.198;2022-11-20T12:26:50;3.70;99.90
16881;DHT22;8557;52.068;5.198;2022-11-20T12:29:31;3.70;99.90
16881;DHT22;8557;52.068;5.198;2022-11-20T12:32:17;3.70;99.90
16881;DHT22;8557;52.068;5.198;2022-11-20T12:34:56;3.70;99.90
16881;DHT22;8557;52.068;5.198;2022-11-20T12:37:36;3.70;99.90
16881;DHT22;8557;52.068;5.198;2022-11-20T12:40:20;3.70;99.90
16881;DHT22;8557;52.068;5.198;2022-11-20T12:42:59;3.70;99.90
16881;DHT22;8557;52.068;5.198;2022-11-20T12:46:13;3.70;99.90
16881;DHT22;8557;52.068;5.198;2022-11-20T12:48:53;3.80;99.90
16881;DHT22;8557;52.068;5.198;2022-11-20T12:51:40;3.80;99.90
16881;DHT22;8557;52.068;5.198;2022-11-20T12:54:44;3.90;99.90
16881;DHT22;8557;52.068;5.198;2022-11-20T12:57:18;4.00;99.90
16881;DHT22;8557;52.068;5.198;2022-11-20T12:59:58;4.00;99.90
16881;DHT22;8557;52.068;5.198;2022-11-20T13:02:35;4.10;99.90
16881;DHT22;8557;52.068;5.198;2022-11-20T13:05:20;4.00;99.90
16881;DHT22;8557;52.068;5.198;2022-11-20T13:07:48;4.10;99.90
16881;DHT22;8557;52.068;5.198;2022-11-20T13:10:21;4.10;99.90
16881;DHT22;8557;52.068;5.198;2022-11-20T13:12:55;4.20;99.90
16881;DHT22;8557;52.068;5.198;2022-11-20T13:15:36;4.10;99.90
16881;DHT22;8557;52.068;5.198;2022-11-20T13:18:09;4.00;99.90
16881;DHT22;8557;52.068;5.198;2022-11-20T13:20:41;4.00;99.90
16881;DHT22;8557;52.068;5.198;2022-11-20T13:23:08;4.00;99.90
16881;DHT22;8557;52.068;5.198;2022-11-20T13:25:37;4.00;99.90
16881;DHT22;8557;52.068;5.198;2022-11-20T13:28:27;4.00;99.90
16881;DHT22;8557;52.068;5.198;2022-11-20T13:30:56;4.00;99.90
16881;DHT22;8557;52.068;5.198;2022-11-20T13:33:28;3.90;99.90
16881;DHT22;8557;52.068;5.198;2022-11-20T13:35:56;3.80;99.90
16881;DHT22;8557;52.068;5.198;2022-11-20T13:38:23;3.70;99.90
16881;DHT22;8557;52.068;5.198;2022-11-20T13:40:52;3.70;99.90
16881;DHT22;8557;52.068;5.198;2022-11-20T13:43:23;3.70;99.90
16881;DHT22;8557;52.068;5.198;2022-11-20T13:45:59;3.80;99.90
16881;DHT22;8557;52.068;5.198;2022-11-20T13:48:30;3.70;99.90
16881;DHT22;8557;52.068;5.198;2022-11-20T13:51:08;3.60;99.90
16881;DHT22;8557;52.068;5.198;2022-11-20T13:54:00;3.60;99.90
16881;DHT22;8557;52.068;5.198;2022-11-20T13:56:37;3.70;99.90
16881;DHT22;8557;52.068;5.198;2022-11-20T13:59:09;3.80;99.90
16881;DHT22;8557;52.068;5.198;2022-11-20T14:01:42;3.80;99.90
16881;DHT22;8557;52.068;5.198;2022-11-20T14:04:15;3.80;99.90
16881;DHT22;8557;52.068;5.198;2022-11-20T14:06:45;3.90;99.90
16881;DHT22;8557;52.068;5.198;2022-11-20T14:09:25;3.90;99.90
16881;DHT22;8557;52.068;5.198;2022-11-20T14:11:52;3.80;99.90
16881;DHT22;8557;52.068;5.198;2022-11-20T14:14:21;3.80;99.90
16881;DHT22;8557;52.068;5.198;2022-11-20T14:16:50;3.80;99.90
16881;DHT22;8557;52.068;5.198;2022-11-20T14:19:28;3.80;99.90
16881;DHT22;8557;52.068;5.198;2022-11-20T14:22:08;3.80;99.90
16881;DHT22;8557;52.068;5.198;2022-11-20T14:24:35;3.80;99.90
16881;DHT22;8557;52.068;5.198;2022-11-20T14:27:02;3.90;99.90
16881;DHT22;8557;52.068;5.198;2022-11-20T14:29:33;3.90;99.90
16881;DHT22;8557;52.068;5.198;2022-11-20T14:32:03;3.90;99.90
16881;DHT22;8557;52.068;5.198;2022-11-20T14:34:31;4.00;99.90
16881;DHT22;8557;52.068;5.198;2022-11-20T14:37:00;3.90;99.90
16881;DHT22;8557;52.068;5.198;2022-11-20T14:39:31;3.90;99.90
16881;DHT22;8557;52.068;5.198;2022-11-20T14:42:03;3.90;99.90
16881;DHT22;8557;52.068;5.198;2022-11-20T14:44:38;3.90;99.90
16881;DHT22;8557;52.068;5.198;2022-11-20T14:47:06;4.00;99.90
16881;DHT22;8557;52.068;5.198;2022-11-20T14:49:33;3.90;99.90
16881;DHT22;8557;52.068;5.198;2022-11-20T14:52:01;3.90;99.90
16881;DHT22;8557;52.068;5.198;2022-11-20T14:54:28;3.90;99.90
16881;DHT22;8557;52.068;5.198;2022-11-20T14:56:57;3.90;99.90
16881;DHT22;8557;52.068;5.198;2022-11-20T14:59:28;3.90;99.90
16881;DHT22;8557;52.068;5.198;2022-11-20T15:01:56;3.90;99.90
16881;DHT22;8557;52.068;5.198;2022-11-20T15:04:25;4.00;99.90
16881;DHT22;8557;52.068;5.198;2022-11-20T15:06:54;3.90;99.90
16881;DHT22;8557;52.068;5.198;2022-11-20T15:09:21;3.90;99.90
16881;DHT22;8557;52.068;5.198;2022-11-20T15:11:54;3.90;99.90
16881;DHT22;8557;52.068;5.198;2022-11-20T15:14:22;3.90;99.90
16881;DHT22;8557;52.068;5.198;2022-11-20T15:16:50;3.80;99.90
16881;DHT22;8557;52.068;5.198;2022-11-20T15:19:20;3.90;99.90
16881;DHT22;8557;52.068;5.198;2022-11-20T15:21:48;3.90;99.90
16881;DHT22;8557;52.068;5.198;2022-11-20T15:24:15;3.90;99.90
16881;DHT22;8557;52.068;5.198;2022-11-20T15:26:42;3.90;99.90
16881;DHT22;8557;52.068;5.198;2022-11-20T15:29:10;3.90;99.90
16881;DHT22;8557;52.068;5.198;2022-11-20T15:31:39;3.80;99.90
16881;DHT22;8557;52.068;5.198;2022-11-20T15:34:10;3.90;99.90
16881;DHT22;8557;52.068;5.198;2022-11-20T15:36:37;3.90;99.90
16881;DHT22;8557;52.068;5.198;2022-11-20T15:39:06;3.80;99.90
16881;DHT22;8557;52.068;5.198;2022-11-20T15:41:33;3.90;99.90
16881;DHT22;8557;52.068;5.198;2022-11-20T15:44:00;3.90;99.90
16881;DHT22;8557;52.068;5.198;2022-11-20T15:46:29;3.90;99.90
16881;DHT22;8557;52.068;5.198;2022-11-20T15:49:00;3.90;99.90
16881;DHT22;8557;52.068;5.198;2022-11-20T15:51:29;3.90;99.90
16881;DHT22;8557;52.068;5.198;2022-11-20T15:53:57;3.90;99.90
16881;DHT22;8557;52.068;5.198;2022-11-20T15:56:26;3.90;99.90
16881;DHT22;8557;52.068;5.198;2022-11-20T15:58:52;4.00;99.90
16881;DHT22;8557;52.068;5.198;2022-11-20T16:01:21;3.90;99.90
16881;DHT22;8557;52.068;5.198;2022-11-20T16:03:48;3.90;99.90
16881;DHT22;8557;52.068;5.198;2022-11-20T16:06:15;4.00;99.90
16881;DHT22;8557;52.068;5.198;2022-11-20T16:08:43;4.00;99.90
16881;DHT22;8557;52.068;5.198;2022-11-20T16:11:12;4.00;99.90
16881;DHT22;8557;52.068;5.198;2022-11-20T16:13:41;4.10;99.90
16881;DHT22;8557;52.068;5.198;2022-11-20T16:16:28;4.10;99.90